sensor_id;sensor_type;location;lat;lon;timestamp;P1;durP1;ratioP1;P2;durP2;ratioP2
5961;SDS011;3007;50.770;0.250;2022-09-09T00:00:52;8.73;;;1.97;;
5961;SDS011;3007;50.770;0.250;2022-09-09T00:03:25;10.90;;;2.13;;
5961;SDS011;3007;50.770;0.250;2022-09-09T00:05:56;13.52;;;2.45;;
5961;SDS011;3007;50.770;0.250;2022-09-09T00:08:32;10.80;;;2.58;;
5961;SDS011;3007;50.770;0.250;2022-09-09T00:11:05;11.07;;;2.78;;
5961;SDS011;3007;50.770;0.250;2022-09-09T00:13:36;11.03;;;2.43;;
5961;SDS011;3007;50.770;0.250;2022-09-09T00:16:08;10.43;;;2.80;;
5961;SDS011;3007;50.770;0.250;2022-09-09T00:18:46;15.00;;;3.03;;
5961;SDS011;3007;50.770;0.250;2022-09-09T00:21:19;18.20;;;3.25;;
5961;SDS011;3007;50.770;0.250;2022-09-09T00:23:52;15.90;;;2.70;;
5961;SDS011;3007;50.770;0.250;2022-09-09T00:26:22;15.95;;;3.10;;
5961;SDS011;3007;50.770;0.250;2022-09-09T00:28:59;12.57;;;2.65;;
5961;SDS011;3007;50.770;0.250;2022-09-09T00:31:31;13.53;;;2.80;;
5961;SDS011;3007;50.770;0.250;2022-09-09T00:34:00;10.48;;;2.42;;
5961;SDS011;3007;50.770;0.250;2022-09-09T00:36:35;8.07;;;2.25;;
5961;SDS011;3007;50.770;0.250;2022-09-09T00:39:03;10.50;;;2.43;;
5961;SDS011;3007;50.770;0.250;2022-09-09T00:41:36;11.57;;;3.07;;
5961;SDS011;3007;50.770;0.250;2022-09-09T00:44:19;8.15;;;1.80;;
5961;SDS011;3007;50.770;0.250;2022-09-09T00:46:56;18.17;;;2.97;;
5961;SDS011;3007;50.770;0.250;2022-09-09T00:49:40;12.40;;;2.95;;
5961;SDS011;3007;50.770;0.250;2022-09-09T00:52:18;11.75;;;2.22;;
5961;SDS011;3007;50.770;0.250;2022-09-09T00:54:54;8.10;;;1.77;;
5961;SDS011;3007;50.770;0.250;2022-09-09T00:57:30;11.07;;;2.13;;
5961;SDS011;3007;50.770;0.250;2022-09-09T01:00:14;7.73;;;2.03;;
5961;SDS011;3007;50.770;0.250;2022-09-09T01:02:49;9.50;;;2.30;;
5961;SDS011;3007;50.770;0.250;2022-09-09T01:05:25;7.50;;;1.63;;
5961;SDS011;3007;50.770;0.250;2022-09-09T01:08:00;8.53;;;1.70;;
5961;SDS011;3007;50.770;0.250;2022-09-09T01:10:31;12.43;;;1.83;;
5961;SDS011;3007;50.770;0.250;2022-09-09T01:13:08;10.23;;;3.13;;
5961;SDS011;3007;50.770;0.250;2022-09-09T01:15:42;9.07;;;1.80;;
5961;SDS011;3007;50.770;0.250;2022-09-09T01:18:13;8.80;;;2.17;;
5961;SDS011;3007;50.770;0.250;2022-09-09T01:20:45;13.57;;;2.00;;
5961;SDS011;3007;50.770;0.250;2022-09-09T01:23:26;6.17;;;2.00;;
5961;SDS011;3007;50.770;0.250;2022-09-09T01:26:19;15.67;;;2.37;;
5961;SDS011;3007;50.770;0.250;2022-09-09T01:28:51;12.68;;;2.67;;
5961;SDS011;3007;50.770;0.250;2022-09-09T01:31:20;12.43;;;2.30;;
5961;SDS011;3007;50.770;0.250;2022-09-09T01:33:52;12.13;;;2.67;;
5961;SDS011;3007;50.770;0.250;2022-09-09T01:36:21;8.32;;;1.92;;
5961;SDS011;3007;50.770;0.250;2022-09-09T01:38:55;7.13;;;2.10;;
5961;SDS011;3007;50.770;0.250;2022-09-09T01:41:23;12.67;;;1.80;;
5961;SDS011;3007;50.770;0.250;2022-09-09T01:43:50;5.63;;;1.97;;
5961;SDS011;3007;50.770;0.250;2022-09-09T01:46:19;6.70;;;1.80;;
5961;SDS011;3007;50.770;0.250;2022-09-09T01:48:48;6.93;;;1.37;;
5961;SDS011;3007;50.770;0.250;2022-09-09T01:51:17;8.00;;;1.77;;
5961;SDS011;3007;50.770;0.250;2022-09-09T01:53:44;4.87;;;1.03;;
5961;SDS011;3007;50.770;0.250;2022-09-09T01:56:15;5.10;;;1.17;;
5961;SDS011;3007;50.770;0.250;2022-09-09T01:58:55;7.57;;;1.60;;
5961;SDS011;3007;50.770;0.250;2022-09-09T02:01:35;4.53;;;1.37;;
5961;SDS011;3007;50.770;0.250;2022-09-09T02:04:20;6.03;;;1.50;;
5961;SDS011;3007;50.770;0.250;2022-09-09T02:06:54;5.97;;;1.30;;
5961;SDS011;3007;50.770;0.250;2022-09-09T02:09:23;7.07;;;1.77;;
5961;SDS011;3007;50.770;0.250;2022-09-09T02:11:52;5.40;;;1.25;;
5961;SDS011;3007;50.770;0.250;2022-09-09T02:14:27;4.85;;;1.40;;
5961;SDS011;3007;50.770;0.250;2022-09-09T02:16:56;4.30;;;1.40;;
5961;SDS011;3007;50.770;0.250;2022-09-09T02:19:29;4.70;;;1.50;;
5961;SDS011;3007;50.770;0.250;2022-09-09T02:21:59;4.55;;;1.40;;
5961;SDS011;3007;50.770;0.250;2022-09-09T02:24:27;6.60;;;1.47;;
5961;SDS011;3007;50.770;0.250;2022-09-09T02:26:58;4.07;;;1.20;;
5961;SDS011;3007;50.770;0.250;2022-09-09T02:29:33;4.90;;;1.60;;
5961;SDS011;3007;50.770;0.250;2022-09-09T02:32:03;5.63;;;1.60;;
5961;SDS011;3007;50.770;0.250;2022-09-09T02:34:33;9.47;;;1.77;;
5961;SDS011;3007;50.770;0.250;2022-09-09T02:37:04;7.23;;;1.70;;
5961;SDS011;3007;50.770;0.250;2022-09-09T02:39:34;6.93;;;1.60;;
5961;SDS011;3007;50.770;0.250;2022-09-09T02:42:01;7.77;;;1.60;;
5961;SDS011;3007;50.770;0.250;2022-09-09T02:44:29;6.63;;;2.10;;
5961;SDS011;3007;50.770;0.250;2022-09-09T02:47:03;5.33;;;1.80;;
5961;SDS011;3007;50.770;0.250;2022-09-09T02:49:40;6.93;;;1.73;;
5961;SDS011;3007;50.770;0.250;2022-09-09T02:52:18;4.37;;;1.63;;
5961;SDS011;3007;50.770;0.250;2022-09-09T02:54:49;8.57;;;2.10;;
5961;SDS011;3007;50.770;0.250;2022-09-09T02:57:25;3.87;;;1.93;;
5961;SDS011;3007;50.770;0.250;2022-09-09T02:59:56;5.83;;;1.63;;
5961;SDS011;3007;50.770;0.250;2022-09-09T03:02:25;5.50;;;1.50;;
5961;SDS011;3007;50.770;0.250;2022-09-09T03:04:52;5.50;;;1.97;;
5961;SDS011;3007;50.770;0.250;2022-09-09T03:07:19;4.57;;;1.80;;
5961;SDS011;3007;50.770;0.250;2022-09-09T03:09:46;7.63;;;2.10;;
5961;SDS011;3007;50.770;0.250;2022-09-09T03:12:13;5.47;;;1.90;;
5961;SDS011;3007;50.770;0.250;2022-09-09T03:14:41;5.13;;;1.70;;
5961;SDS011;3007;50.770;0.250;2022-09-09T03:17:09;7.90;;;1.80;;
5961;SDS011;3007;50.770;0.250;2022-09-09T03:19:37;3.60;;;2.03;;
5961;SDS011;3007;50.770;0.250;2022-09-09T03:22:05;6.97;;;1.87;;
5961;SDS011;3007;50.770;0.250;2022-09-09T03:24:32;5.27;;;1.70;;
5961;SDS011;3007;50.770;0.250;2022-09-09T03:26:58;7.50;;;1.80;;
5961;SDS011;3007;50.770;0.250;2022-09-09T03:29:25;4.73;;;1.70;;
5961;SDS011;3007;50.770;0.250;2022-09-09T03:31:52;5.03;;;2.40;;
5961;SDS011;3007;50.770;0.250;2022-09-09T03:34:19;2.30;;;1.70;;
5961;SDS011;3007;50.770;0.250;2022-09-09T03:36:47;3.47;;;1.63;;
5961;SDS011;3007;50.770;0.250;2022-09-09T03:39:15;4.23;;;1.53;;
5961;SDS011;3007;50.770;0.250;2022-09-09T03:41:42;3.80;;;1.57;;
5961;SDS011;3007;50.770;0.250;2022-09-09T03:44:12;3.17;;;1.40;;
5961;SDS011;3007;50.770;0.250;2022-09-09T03:46:40;2.70;;;1.60;;
5961;SDS011;3007;50.770;0.250;2022-09-09T03:49:07;6.40;;;1.40;;
5961;SDS011;3007;50.770;0.250;2022-09-09T03:51:38;4.23;;;1.20;;
5961;SDS011;3007;50.770;0.250;2022-09-09T03:54:06;3.40;;;1.60;;
5961;SDS011;3007;50.770;0.250;2022-09-09T03:56:35;3.13;;;1.70;;
5961;SDS011;3007;50.770;0.250;2022-09-09T03:59:02;2.57;;;1.73;;
5961;SDS011;3007;50.770;0.250;2022-09-09T04:01:30;4.30;;;1.50;;
5961;SDS011;3007;50.770;0.250;2022-09-09T04:03:57;2.47;;;1.47;;
5961;SDS011;3007;50.770;0.250;2022-09-09T04:06:24;5.47;;;1.97;;
5961;SDS011;3007;50.770;0.250;2022-09-09T04:08:51;2.30;;;1.60;;
5961;SDS011;3007;50.770;0.250;2022-09-09T04:11:19;5.47;;;1.80;;
5961;SDS011;3007;50.770;0.250;2022-09-09T04:13:47;5.17;;;1.80;;
5961;SDS011;3007;50.770;0.250;2022-09-09T04:16:14;5.23;;;1.90;;
5961;SDS011;3007;50.770;0.250;2022-09-09T04:18:42;2.97;;;1.50;;
5961;SDS011;3007;50.770;0.250;2022-09-09T04:21:09;3.13;;;1.87;;
5961;SDS011;3007;50.770;0.250;2022-09-09T04:23:37;3.40;;;1.70;;
5961;SDS011;3007;50.770;0.250;2022-09-09T04:26:05;6.57;;;1.57;;
5961;SDS011;3007;50.770;0.250;2022-09-09T04:28:34;2.60;;;1.47;;
5961;SDS011;3007;50.770;0.250;2022-09-09T04:31:05;4.73;;;1.40;;
5961;SDS011;3007;50.770;0.250;2022-09-09T04:33:34;5.20;;;1.77;;
5961;SDS011;3007;50.770;0.250;2022-09-09T04:36:01;4.40;;;1.60;;
5961;SDS011;3007;50.770;0.250;2022-09-09T04:38:28;5.03;;;1.80;;
5961;SDS011;3007;50.770;0.250;2022-09-09T04:40:55;3.33;;;1.20;;
5961;SDS011;3007;50.770;0.250;2022-09-09T04:43:22;4.30;;;1.63;;
5961;SDS011;3007;50.770;0.250;2022-09-09T04:45:51;4.43;;;1.50;;
5961;SDS011;3007;50.770;0.250;2022-09-09T04:48:18;3.07;;;1.40;;
5961;SDS011;3007;50.770;0.250;2022-09-09T04:50:53;5.87;;;1.80;;
5961;SDS011;3007;50.770;0.250;2022-09-09T04:53:21;3.70;;;1.67;;
5961;SDS011;3007;50.770;0.250;2022-09-09T04:55:50;4.60;;;2.07;;
5961;SDS011;3007;50.770;0.250;2022-09-09T04:58:17;5.03;;;1.83;;
5961;SDS011;3007;50.770;0.250;2022-09-09T05:00:47;8.93;;;2.10;;
5961;SDS011;3007;50.770;0.250;2022-09-09T05:03:15;6.03;;;1.53;;
5961;SDS011;3007;50.770;0.250;2022-09-09T05:05:42;5.43;;;2.10;;
5961;SDS011;3007;50.770;0.250;2022-09-09T05:08:11;4.10;;;2.13;;
5961;SDS011;3007;50.770;0.250;2022-09-09T05:10:38;3.23;;;1.90;;
5961;SDS011;3007;50.770;0.250;2022-09-09T05:13:06;3.17;;;1.53;;
5961;SDS011;3007;50.770;0.250;2022-09-09T05:15:33;8.77;;;2.03;;
5961;SDS011;3007;50.770;0.250;2022-09-09T05:18:01;4.70;;;1.80;;
5961;SDS011;3007;50.770;0.250;2022-09-09T05:20:29;9.23;;;1.97;;
5961;SDS011;3007;50.770;0.250;2022-09-09T05:22:57;4.40;;;1.73;;
5961;SDS011;3007;50.770;0.250;2022-09-09T05:25:24;3.90;;;1.77;;
5961;SDS011;3007;50.770;0.250;2022-09-09T05:27:51;2.33;;;1.60;;
5961;SDS011;3007;50.770;0.250;2022-09-09T05:30:19;4.50;;;1.90;;
5961;SDS011;3007;50.770;0.250;2022-09-09T05:32:47;3.40;;;1.57;;
5961;SDS011;3007;50.770;0.250;2022-09-09T05:35:15;5.50;;;1.70;;
5961;SDS011;3007;50.770;0.250;2022-09-09T05:37:45;4.00;;;2.20;;
5961;SDS011;3007;50.770;0.250;2022-09-09T05:40:12;3.70;;;1.90;;
5961;SDS011;3007;50.770;0.250;2022-09-09T05:42:40;2.60;;;1.90;;
5961;SDS011;3007;50.770;0.250;2022-09-09T05:45:07;6.77;;;1.73;;
5961;SDS011;3007;50.770;0.250;2022-09-09T05:47:36;3.13;;;2.10;;
5961;SDS011;3007;50.770;0.250;2022-09-09T05:50:03;3.33;;;1.90;;
5961;SDS011;3007;50.770;0.250;2022-09-09T05:52:31;5.10;;;2.40;;
5961;SDS011;3007;50.770;0.250;2022-09-09T05:54:59;3.57;;;1.60;;
5961;SDS011;3007;50.770;0.250;2022-09-09T05:57:26;7.10;;;2.50;;
5961;SDS011;3007;50.770;0.250;2022-09-09T05:59:53;5.87;;;2.00;;
5961;SDS011;3007;50.770;0.250;2022-09-09T06:02:20;4.53;;;2.10;;
5961;SDS011;3007;50.770;0.250;2022-09-09T06:04:47;5.23;;;2.17;;
5961;SDS011;3007;50.770;0.250;2022-09-09T06:07:20;3.07;;;1.80;;
5961;SDS011;3007;50.770;0.250;2022-09-09T06:09:47;7.33;;;2.70;;
5961;SDS011;3007;50.770;0.250;2022-09-09T06:12:15;3.57;;;1.80;;
5961;SDS011;3007;50.770;0.250;2022-09-09T06:14:45;6.40;;;2.20;;
5961;SDS011;3007;50.770;0.250;2022-09-09T06:17:12;4.27;;;2.20;;
5961;SDS011;3007;50.770;0.250;2022-09-09T06:19:39;2.70;;;1.70;;
5961;SDS011;3007;50.770;0.250;2022-09-09T06:22:06;6.30;;;2.23;;
5961;SDS011;3007;50.770;0.250;2022-09-09T06:24:38;5.30;;;2.00;;
5961;SDS011;3007;50.770;0.250;2022-09-09T06:27:04;4.70;;;2.20;;
5961;SDS011;3007;50.770;0.250;2022-09-09T06:29:33;3.87;;;2.03;;
5961;SDS011;3007;50.770;0.250;2022-09-09T06:32:00;5.77;;;2.43;;
5961;SDS011;3007;50.770;0.250;2022-09-09T06:34:29;2.97;;;1.90;;
5961;SDS011;3007;50.770;0.250;2022-09-09T06:36:56;4.17;;;1.87;;
5961;SDS011;3007;50.770;0.250;2022-09-09T06:39:23;2.90;;;1.73;;
5961;SDS011;3007;50.770;0.250;2022-09-09T06:41:51;6.40;;;1.97;;
5961;SDS011;3007;50.770;0.250;2022-09-09T06:44:18;2.93;;;2.00;;
5961;SDS011;3007;50.770;0.250;2022-09-09T06:46:49;5.00;;;2.10;;
5961;SDS011;3007;50.770;0.250;2022-09-09T06:49:18;3.93;;;1.60;;
5961;SDS011;3007;50.770;0.250;2022-09-09T06:51:45;4.57;;;2.00;;
5961;SDS011;3007;50.770;0.250;2022-09-09T06:54:12;3.07;;;1.80;;
5961;SDS011;3007;50.770;0.250;2022-09-09T06:56:40;2.87;;;1.87;;
5961;SDS011;3007;50.770;0.250;2022-09-09T06:59:09;5.57;;;2.00;;
5961;SDS011;3007;50.770;0.250;2022-09-09T07:01:38;7.90;;;2.30;;
5961;SDS011;3007;50.770;0.250;2022-09-09T07:04:08;4.35;;;1.52;;
5961;SDS011;3007;50.770;0.250;2022-09-09T07:06:36;5.60;;;1.83;;
5961;SDS011;3007;50.770;0.250;2022-09-09T07:09:05;6.45;;;2.10;;
5961;SDS011;3007;50.770;0.250;2022-09-09T07:11:36;2.90;;;1.90;;
5961;SDS011;3007;50.770;0.250;2022-09-09T07:14:04;3.53;;;2.00;;
5961;SDS011;3007;50.770;0.250;2022-09-09T07:16:34;8.32;;;2.20;;
5961;SDS011;3007;50.770;0.250;2022-09-09T07:19:02;3.93;;;1.90;;
5961;SDS011;3007;50.770;0.250;2022-09-09T07:21:31;5.57;;;2.30;;
5961;SDS011;3007;50.770;0.250;2022-09-09T07:23:59;3.13;;;2.33;;
5961;SDS011;3007;50.770;0.250;2022-09-09T07:26:28;5.88;;;1.88;;
5961;SDS011;3007;50.770;0.250;2022-09-09T07:28:56;4.50;;;1.70;;
5961;SDS011;3007;50.770;0.250;2022-09-09T07:31:24;5.32;;;2.10;;
5961;SDS011;3007;50.770;0.250;2022-09-09T07:33:52;5.20;;;2.30;;
5961;SDS011;3007;50.770;0.250;2022-09-09T07:36:20;4.75;;;1.80;;
5961;SDS011;3007;50.770;0.250;2022-09-09T07:38:51;5.63;;;2.10;;
5961;SDS011;3007;50.770;0.250;2022-09-09T07:41:20;7.20;;;2.35;;
5961;SDS011;3007;50.770;0.250;2022-09-09T07:43:50;3.58;;;2.08;;
5961;SDS011;3007;50.770;0.250;2022-09-09T07:46:19;2.33;;;2.00;;
5961;SDS011;3007;50.770;0.250;2022-09-09T07:48:47;5.28;;;1.83;;
5961;SDS011;3007;50.770;0.250;2022-09-09T07:51:17;3.42;;;1.73;;
5961;SDS011;3007;50.770;0.250;2022-09-09T07:53:47;3.50;;;1.83;;
5961;SDS011;3007;50.770;0.250;2022-09-09T07:56:19;3.83;;;1.95;;
5961;SDS011;3007;50.770;0.250;2022-09-09T07:58:50;3.55;;;2.10;;
5961;SDS011;3007;50.770;0.250;2022-09-09T08:01:20;4.53;;;2.00;;
5961;SDS011;3007;50.770;0.250;2022-09-09T08:03:52;2.85;;;1.67;;
5961;SDS011;3007;50.770;0.250;2022-09-09T08:06:20;2.88;;;1.60;;
5961;SDS011;3007;50.770;0.250;2022-09-09T08:08:50;3.55;;;1.55;;
5961;SDS011;3007;50.770;0.250;2022-09-09T08:11:19;5.57;;;1.80;;
5961;SDS011;3007;50.770;0.250;2022-09-09T08:13:48;3.78;;;2.17;;
5961;SDS011;3007;50.770;0.250;2022-09-09T08:16:17;3.58;;;1.70;;
5961;SDS011;3007;50.770;0.250;2022-09-09T08:18:46;2.10;;;1.73;;
5961;SDS011;3007;50.770;0.250;2022-09-09T08:21:15;3.40;;;1.73;;
5961;SDS011;3007;50.770;0.250;2022-09-09T08:23:44;5.10;;;1.92;;
5961;SDS011;3007;50.770;0.250;2022-09-09T08:26:12;3.22;;;2.10;;
5961;SDS011;3007;50.770;0.250;2022-09-09T08:28:43;4.25;;;1.70;;
5961;SDS011;3007;50.770;0.250;2022-09-09T08:31:10;3.25;;;2.13;;
5961;SDS011;3007;50.770;0.250;2022-09-09T08:33:38;2.17;;;1.67;;
5961;SDS011;3007;50.770;0.250;2022-09-09T08:36:14;4.43;;;1.90;;
5961;SDS011;3007;50.770;0.250;2022-09-09T08:38:43;2.95;;;2.03;;
5961;SDS011;3007;50.770;0.250;2022-09-09T08:41:27;2.92;;;1.88;;
5961;SDS011;3007;50.770;0.250;2022-09-09T08:44:08;2.78;;;1.95;;
5961;SDS011;3007;50.770;0.250;2022-09-09T08:46:42;6.32;;;2.42;;
5961;SDS011;3007;50.770;0.250;2022-09-09T08:49:24;2.90;;;2.10;;
5961;SDS011;3007;50.770;0.250;2022-09-09T08:52:15;3.88;;;2.50;;
5961;SDS011;3007;50.770;0.250;2022-09-09T08:54:45;3.03;;;2.50;;
5961;SDS011;3007;50.770;0.250;2022-09-09T08:57:14;3.15;;;2.13;;
5961;SDS011;3007;50.770;0.250;2022-09-09T08:59:47;4.85;;;2.78;;
5961;SDS011;3007;50.770;0.250;2022-09-09T09:02:16;5.38;;;2.70;;
5961;SDS011;3007;50.770;0.250;2022-09-09T09:04:52;2.47;;;1.92;;
5961;SDS011;3007;50.770;0.250;2022-09-09T09:07:37;3.45;;;2.60;;
5961;SDS011;3007;50.770;0.250;2022-09-09T09:10:15;3.13;;;2.10;;
5961;SDS011;3007;50.770;0.250;2022-09-09T09:12:58;4.55;;;2.55;;
5961;SDS011;3007;50.770;0.250;2022-09-09T09:15:30;3.83;;;2.50;;
5961;SDS011;3007;50.770;0.250;2022-09-09T09:18:02;4.22;;;2.67;;
5961;SDS011;3007;50.770;0.250;2022-09-09T09:20:31;5.65;;;2.70;;
5961;SDS011;3007;50.770;0.250;2022-09-09T09:23:06;4.85;;;2.58;;
5961;SDS011;3007;50.770;0.250;2022-09-09T09:25:42;6.88;;;2.30;;
5961;SDS011;3007;50.770;0.250;2022-09-09T09:28:12;3.67;;;2.35;;
5961;SDS011;3007;50.770;0.250;2022-09-09T09:30:46;6.53;;;2.30;;
5961;SDS011;3007;50.770;0.250;2022-09-09T09:33:18;4.30;;;1.67;;
5961;SDS011;3007;50.770;0.250;2022-09-09T09:35:49;2.63;;;1.85;;
5961;SDS011;3007;50.770;0.250;2022-09-09T09:38:17;6.38;;;1.80;;
5961;SDS011;3007;50.770;0.250;2022-09-09T09:40:48;5.95;;;1.80;;
5961;SDS011;3007;50.770;0.250;2022-09-09T09:43:20;4.55;;;2.10;;
5961;SDS011;3007;50.770;0.250;2022-09-09T09:45:51;3.67;;;1.70;;
5961;SDS011;3007;50.770;0.250;2022-09-09T09:48:18;5.20;;;1.90;;
5961;SDS011;3007;50.770;0.250;2022-09-09T09:50:49;5.30;;;1.77;;
5961;SDS011;3007;50.770;0.250;2022-09-09T09:53:20;4.28;;;2.05;;
5961;SDS011;3007;50.770;0.250;2022-09-09T09:55:51;4.05;;;1.88;;
5961;SDS011;3007;50.770;0.250;2022-09-09T09:58:20;4.03;;;2.05;;
5961;SDS011;3007;50.770;0.250;2022-09-09T10:00:48;3.35;;;1.75;;
5961;SDS011;3007;50.770;0.250;2022-09-09T10:03:25;2.65;;;1.70;;
5961;SDS011;3007;50.770;0.250;2022-09-09T10:05:53;5.30;;;2.05;;
5961;SDS011;3007;50.770;0.250;2022-09-09T10:08:21;2.33;;;1.50;;
5961;SDS011;3007;50.770;0.250;2022-09-09T10:11:01;3.08;;;1.80;;
5961;SDS011;3007;50.770;0.250;2022-09-09T10:13:47;3.63;;;1.80;;
5961;SDS011;3007;50.770;0.250;2022-09-09T10:16:28;2.50;;;1.63;;
5961;SDS011;3007;50.770;0.250;2022-09-09T10:19:10;5.45;;;1.85;;
5961;SDS011;3007;50.770;0.250;2022-09-09T10:21:48;4.43;;;1.33;;
5961;SDS011;3007;50.770;0.250;2022-09-09T10:24:34;3.10;;;1.90;;
5961;SDS011;3007;50.770;0.250;2022-09-09T10:27:11;2.97;;;1.55;;
5961;SDS011;3007;50.770;0.250;2022-09-09T10:29:48;2.72;;;1.50;;
5961;SDS011;3007;50.770;0.250;2022-09-09T10:32:33;6.18;;;1.50;;
5961;SDS011;3007;50.770;0.250;2022-09-09T10:35:11;2.95;;;1.33;;
5961;SDS011;3007;50.770;0.250;2022-09-09T10:37:48;2.63;;;1.30;;
5961;SDS011;3007;50.770;0.250;2022-09-09T10:40:28;3.75;;;1.20;;
5961;SDS011;3007;50.770;0.250;2022-09-09T10:43:00;2.40;;;1.33;;
5961;SDS011;3007;50.770;0.250;2022-09-09T10:45:37;2.28;;;1.10;;
5961;SDS011;3007;50.770;0.250;2022-09-09T10:48:15;3.58;;;1.42;;
5961;SDS011;3007;50.770;0.250;2022-09-09T10:50:59;4.00;;;1.38;;
5961;SDS011;3007;50.770;0.250;2022-09-09T10:53:36;1.40;;;1.30;;
5961;SDS011;3007;50.770;0.250;2022-09-09T10:56:17;3.00;;;1.48;;
5961;SDS011;3007;50.770;0.250;2022-09-09T10:58:47;2.50;;;1.33;;
5961;SDS011;3007;50.770;0.250;2022-09-09T11:01:18;2.58;;;1.20;;
5961;SDS011;3007;50.770;0.250;2022-09-09T11:03:50;2.15;;;1.38;;
5961;SDS011;3007;50.770;0.250;2022-09-09T11:06:22;2.50;;;1.40;;
5961;SDS011;3007;50.770;0.250;2022-09-09T11:08:55;1.33;;;0.90;;
5961;SDS011;3007;50.770;0.250;2022-09-09T11:11:27;3.55;;;1.38;;
5961;SDS011;3007;50.770;0.250;2022-09-09T11:14:00;2.22;;;1.05;;
5961;SDS011;3007;50.770;0.250;2022-09-09T11:16:38;3.05;;;0.98;;
5961;SDS011;3007;50.770;0.250;2022-09-09T11:19:11;2.28;;;1.15;;
5961;SDS011;3007;50.770;0.250;2022-09-09T11:21:45;1.42;;;0.98;;
5961;SDS011;3007;50.770;0.250;2022-09-09T11:24:14;2.28;;;1.00;;
5961;SDS011;3007;50.770;0.250;2022-09-09T11:26:48;3.08;;;1.10;;
5961;SDS011;3007;50.770;0.250;2022-09-09T11:32:39;1.85;;;0.90;;
5961;SDS011;3007;50.770;0.250;2022-09-09T11:35:30;1.90;;;0.90;;
5961;SDS011;3007;50.770;0.250;2022-09-09T11:38:18;3.90;;;1.10;;
5961;SDS011;3007;50.770;0.250;2022-09-09T11:40:58;2.67;;;1.05;;
5961;SDS011;3007;50.770;0.250;2022-09-09T11:43:28;2.63;;;1.00;;
5961;SDS011;3007;50.770;0.250;2022-09-09T11:45:58;4.18;;;1.10;;
5961;SDS011;3007;50.770;0.250;2022-09-09T11:48:32;1.45;;;0.77;;
5961;SDS011;3007;50.770;0.250;2022-09-09T11:51:02;3.55;;;0.95;;
5961;SDS011;3007;50.770;0.250;2022-09-09T11:53:33;5.93;;;1.35;;
5961;SDS011;3007;50.770;0.250;2022-09-09T11:56:02;3.28;;;0.98;;
5961;SDS011;3007;50.770;0.250;2022-09-09T11:58:34;2.80;;;0.93;;
5961;SDS011;3007;50.770;0.250;2022-09-09T12:01:12;2.95;;;0.90;;
5961;SDS011;3007;50.770;0.250;2022-09-09T12:06:42;1.83;;;0.88;;
5961;SDS011;3007;50.770;0.250;2022-09-09T12:09:18;2.30;;;1.00;;
5961;SDS011;3007;50.770;0.250;2022-09-09T12:11:49;4.15;;;1.17;;
5961;SDS011;3007;50.770;0.250;2022-09-09T12:14:21;1.10;;;0.80;;
5961;SDS011;3007;50.770;0.250;2022-09-09T12:16:50;1.48;;;1.00;;
5961;SDS011;3007;50.770;0.250;2022-09-09T12:19:18;1.67;;;0.80;;
5961;SDS011;3007;50.770;0.250;2022-09-09T12:21:52;2.63;;;0.98;;
5961;SDS011;3007;50.770;0.250;2022-09-09T12:24:29;3.42;;;1.27;;
5961;SDS011;3007;50.770;0.250;2022-09-09T12:27:02;4.40;;;1.33;;
5961;SDS011;3007;50.770;0.250;2022-09-09T12:29:40;4.10;;;1.23;;
5961;SDS011;3007;50.770;0.250;2022-09-09T12:32:14;2.80;;;1.05;;
5961;SDS011;3007;50.770;0.250;2022-09-09T12:34:49;2.47;;;0.90;;
5961;SDS011;3007;50.770;0.250;2022-09-09T12:37:36;2.20;;;1.20;;
5961;SDS011;3007;50.770;0.250;2022-09-09T12:40:17;3.00;;;0.90;;
5961;SDS011;3007;50.770;0.250;2022-09-09T12:42:47;1.08;;;0.70;;
5961;SDS011;3007;50.770;0.250;2022-09-09T12:45:17;4.05;;;0.90;;
5961;SDS011;3007;50.770;0.250;2022-09-09T12:47:45;1.40;;;0.75;;
5961;SDS011;3007;50.770;0.250;2022-09-09T12:50:17;2.72;;;0.70;;
5961;SDS011;3007;50.770;0.250;2022-09-09T12:52:47;3.35;;;1.02;;
5961;SDS011;3007;50.770;0.250;2022-09-09T12:55:17;6.18;;;1.20;;
5961;SDS011;3007;50.770;0.250;2022-09-09T12:57:46;2.25;;;0.88;;
5961;SDS011;3007;50.770;0.250;2022-09-09T13:00:17;3.40;;;1.17;;
5961;SDS011;3007;50.770;0.250;2022-09-09T13:02:49;3.55;;;1.20;;
5961;SDS011;3007;50.770;0.250;2022-09-09T13:05:18;2.90;;;1.17;;
5961;SDS011;3007;50.770;0.250;2022-09-09T13:07:47;3.03;;;1.10;;
5961;SDS011;3007;50.770;0.250;2022-09-09T13:10:15;5.60;;;1.00;;
5961;SDS011;3007;50.770;0.250;2022-09-09T13:12:51;3.33;;;1.45;;
5961;SDS011;3007;50.770;0.250;2022-09-09T13:15:20;4.90;;;1.23;;
5961;SDS011;3007;50.770;0.250;2022-09-09T13:17:50;5.28;;;1.15;;
5961;SDS011;3007;50.770;0.250;2022-09-09T13:20:19;2.45;;;1.02;;
5961;SDS011;3007;50.770;0.250;2022-09-09T13:22:47;3.72;;;1.20;;
5961;SDS011;3007;50.770;0.250;2022-09-09T13:25:18;1.50;;;0.63;;
5961;SDS011;3007;50.770;0.250;2022-09-09T13:27:52;3.63;;;0.90;;
5961;SDS011;3007;50.770;0.250;2022-09-09T13:30:25;5.68;;;1.13;;
5961;SDS011;3007;50.770;0.250;2022-09-09T13:33:05;4.45;;;1.20;;
5961;SDS011;3007;50.770;0.250;2022-09-09T13:35:45;1.95;;;0.80;;
5961;SDS011;3007;50.770;0.250;2022-09-09T13:38:17;4.50;;;1.08;;
5961;SDS011;3007;50.770;0.250;2022-09-09T13:40:57;3.15;;;0.95;;
5961;SDS011;3007;50.770;0.250;2022-09-09T13:43:28;4.78;;;1.00;;
5961;SDS011;3007;50.770;0.250;2022-09-09T13:45:58;2.72;;;0.90;;
5961;SDS011;3007;50.770;0.250;2022-09-09T13:48:26;2.85;;;0.85;;
5961;SDS011;3007;50.770;0.250;2022-09-09T13:50:58;2.83;;;0.70;;
5961;SDS011;3007;50.770;0.250;2022-09-09T13:53:27;4.70;;;1.00;;
5961;SDS011;3007;50.770;0.250;2022-09-09T13:55:55;3.08;;;0.70;;
5961;SDS011;3007;50.770;0.250;2022-09-09T13:58:24;2.33;;;0.80;;
5961;SDS011;3007;50.770;0.250;2022-09-09T14:00:51;2.60;;;0.88;;
5961;SDS011;3007;50.770;0.250;2022-09-09T14:03:18;2.78;;;0.80;;
5961;SDS011;3007;50.770;0.250;2022-09-09T14:05:46;1.98;;;0.65;;
5961;SDS011;3007;50.770;0.250;2022-09-09T14:08:19;0.90;;;0.57;;
5961;SDS011;3007;50.770;0.250;2022-09-09T14:10:50;2.45;;;0.82;;
5961;SDS011;3007;50.770;0.250;2022-09-09T14:13:17;1.50;;;0.95;;
5961;SDS011;3007;50.770;0.250;2022-09-09T14:15:47;3.47;;;1.00;;
5961;SDS011;3007;50.770;0.250;2022-09-09T14:18:15;2.63;;;0.93;;
5961;SDS011;3007;50.770;0.250;2022-09-09T14:20:41;4.22;;;0.73;;
5961;SDS011;3007;50.770;0.250;2022-09-09T14:23:10;4.30;;;1.10;;
5961;SDS011;3007;50.770;0.250;2022-09-09T14:25:39;1.80;;;0.95;;
5961;SDS011;3007;50.770;0.250;2022-09-09T14:28:08;1.20;;;0.90;;
5961;SDS011;3007;50.770;0.250;2022-09-09T14:30:37;2.03;;;0.85;;
5961;SDS011;3007;50.770;0.250;2022-09-09T14:33:06;2.15;;;1.00;;
5961;SDS011;3007;50.770;0.250;2022-09-09T14:35:34;1.27;;;0.80;;
5961;SDS011;3007;50.770;0.250;2022-09-09T14:38:01;1.52;;;0.73;;
5961;SDS011;3007;50.770;0.250;2022-09-09T14:40:29;3.83;;;1.05;;
5961;SDS011;3007;50.770;0.250;2022-09-09T14:42:56;4.45;;;0.98;;
5961;SDS011;3007;50.770;0.250;2022-09-09T14:45:23;1.95;;;0.77;;
5961;SDS011;3007;50.770;0.250;2022-09-09T14:47:51;2.95;;;0.95;;
5961;SDS011;3007;50.770;0.250;2022-09-09T14:50:20;4.18;;;1.20;;
5961;SDS011;3007;50.770;0.250;2022-09-09T14:52:47;2.20;;;0.77;;
5961;SDS011;3007;50.770;0.250;2022-09-09T14:55:15;3.28;;;1.00;;
5961;SDS011;3007;50.770;0.250;2022-09-09T14:57:43;1.85;;;0.93;;
5961;SDS011;3007;50.770;0.250;2022-09-09T15:00:10;2.92;;;0.80;;
5961;SDS011;3007;50.770;0.250;2022-09-09T15:02:38;2.78;;;0.70;;
5961;SDS011;3007;50.770;0.250;2022-09-09T15:05:05;1.70;;;0.65;;
5961;SDS011;3007;50.770;0.250;2022-09-09T15:07:34;1.08;;;0.70;;
5961;SDS011;3007;50.770;0.250;2022-09-09T15:10:02;1.27;;;0.60;;
5961;SDS011;3007;50.770;0.250;2022-09-09T15:12:30;1.85;;;0.70;;
5961;SDS011;3007;50.770;0.250;2022-09-09T15:14:58;2.05;;;1.00;;
5961;SDS011;3007;50.770;0.250;2022-09-09T15:17:25;3.60;;;1.10;;
5961;SDS011;3007;50.770;0.250;2022-09-09T15:19:52;0.98;;;0.63;;
5961;SDS011;3007;50.770;0.250;2022-09-09T15:22:20;3.28;;;0.80;;
5961;SDS011;3007;50.770;0.250;2022-09-09T15:24:48;3.30;;;0.85;;
5961;SDS011;3007;50.770;0.250;2022-09-09T15:27:15;3.63;;;1.05;;
5961;SDS011;3007;50.770;0.250;2022-09-09T15:29:43;3.35;;;0.90;;
5961;SDS011;3007;50.770;0.250;2022-09-09T15:32:10;1.35;;;0.73;;
5961;SDS011;3007;50.770;0.250;2022-09-09T15:34:37;3.40;;;0.88;;
5961;SDS011;3007;50.770;0.250;2022-09-09T15:37:04;4.22;;;0.90;;
5961;SDS011;3007;50.770;0.250;2022-09-09T15:39:35;2.53;;;1.33;;
5961;SDS011;3007;50.770;0.250;2022-09-09T15:42:04;1.42;;;0.80;;
5961;SDS011;3007;50.770;0.250;2022-09-09T15:44:37;1.63;;;0.70;;